Willkommen auf der Webseite des Flugplatzes Uetersen/Heist PDF Drucken E-Mail

Liebe Piloten,

G20 und Asphaltierungsarbeiten sind Vergangenheit, als nächstes Highlight steht am Wochenende 29./30.07.2017 das alljährlich stattfindende Wings and Wheels Event vor der Tür mit reichlich Abwechslung am Boden und in der Luft. Weitere Infos unter http://www.wingsnwheels.de/

 

Sobald die Zeitfenster und Verfahren für an- und abfliegende Piloten an dem WnW-Wochenende genauer festgelegt sind, erhalten Sie hier eine aktuelle Information.

 

Ihr Flugplatzteam

 

Liebe Fliegerfreunde, liebe Gäste und Kunden des Flugplatzes Uetersen,

Herr Szaguhn steht mit seinem Tower-Restaurant täglich außer Montags für Sie bereit.

 

 

 

 

Zufallsbild

Aktuelle Termine

Mo Di Mi Do Fr Sa So
30 31 1 2 3 4 5
6 7 8 9 10 11 12
13 14 15 16 17 18 19
20 21 22 23 24 25 26
27 28 29 30 1 2 3

Pilotenwetter

[source: ADDS]
METAR
EDDH 221620Z 20012KT 9999 SCT021 10/08 Q1004 NOSIG =
TAF
TAF EDDH 221100Z 2212/2318 19013KT 7000 BKN006 BECMG 2213/2216 SCT025 TEMPO 2307/2318 20015G30KT =